Time;durP1;ratioP1;P1;durP2;ratioP2;P2;SDS_P1;SDS_P2;PMS_P1;PMS_P2;Temp;Humidity;BMP_temperature;BMP_pressure;BME280_temperature;BME280_humidity;BME280_pressure;Samples;Min_cycle;Max_cycle;Signal;HPM_P1;HPM_P2
2023/05/29 00:01:31;;;;;;;23.23;5.27;;;;;;;11.88;94.43;102449.47;5039640;28;20068;-72
2023/05/29 00:03:56;;;;;;;25.23;5.95;;;;;;;11.90;94.72;102444.69;5034467;28;20169;-71
2023/05/29 00:06:22;;;;;;;27.93;5.57;;;;;;;11.83;95.20;102451.88;5038045;28;20492;-72
2023/05/29 00:08:47;;;;;;;13.10;3.87;;;;;;;11.83;95.16;102446.38;5039624;28;20432;-71
2023/05/29 00:11:13;;;;;;;25.13;7.07;;;;;;;11.80;95.68;102453.06;5039070;28;20507;-72
2023/05/29 00:13:38;;;;;;;20.20;4.37;;;;;;;11.83;95.56;102460.09;5038436;28;20028;-72
2023/05/29 00:16:04;;;;;;;28.30;6.00;;;;;;;11.79;95.87;102456.00;5037420;28;20611;-72
2023/05/29 00:18:30;;;;;;;22.37;5.17;;;;;;;11.83;96.23;102463.72;5039456;28;20453;-73
2023/05/29 00:20:55;;;;;;;25.27;4.40;;;;;;;11.75;96.42;102468.31;5043123;28;20032;-72
2023/05/29 00:23:21;;;;;;;29.33;4.27;;;;;;;11.71;97.11;102458.69;5036897;28;20037;-72
2023/05/29 00:25:47;;;;;;;;;;;;;;;11.69;97.26;102461.59;5038748;28;20330;-72
2023/05/29 00:28:13;;;;;;;22.05;4.60;;;;;;;11.68;97.04;102461.78;5035453;28;19917;-72
2023/05/29 00:30:39;;;;;;;31.80;4.77;;;;;;;11.66;96.60;102459.19;5036130;28;20037;-72
2023/05/29 00:33:05;;;;;;;15.80;3.97;;;;;;;11.63;96.18;102469.66;5038561;28;20476;-71
2023/05/29 00:35:30;;;;;;;18.70;4.37;;;;;;;11.57;95.84;102459.25;5041607;28;20064;-72
2023/05/29 00:37:58;;;;;;;20.98;4.57;;;;;;;11.52;94.64;102470.75;5037820;28;20051;-72
2023/05/29 00:40:23;;;;;;;22.20;4.55;;;;;;;11.49;94.61;102473.84;5040836;28;20036;-72
2023/05/29 00:42:49;;;;;;;18.17;3.60;;;;;;;11.49;94.31;102475.69;5022398;28;20468;-71
2023/05/29 00:45:15;;;;;;;20.55;4.68;;;;;;;11.42;94.46;102472.75;5035038;28;20052;-72
2023/05/29 00:47:41;;;;;;;21.67;4.47;;;;;;;11.35;94.90;102471.69;5040915;28;20029;-72
2023/05/29 00:50:10;;;;;;;24.00;4.57;;;;;;;11.39;94.75;102463.97;5034747;28;20036;-72
2023/05/29 00:52:37;;;;;;;24.15;4.38;;;;;;;11.28;94.98;102473.38;5069517;28;20445;-72
2023/05/29 00:55:03;;;;;;;;;;;;;;;11.30;95.31;102479.53;5037072;28;20040;-72
2023/05/29 00:57:29;;;;;;;21.98;4.03;;;;;;;11.26;95.01;102477.28;5035008;28;19913;-72
2023/05/29 00:59:56;;;;;;;32.00;6.07;;;;;;;11.22;95.28;102481.38;5033229;28;20029;-73
2023/05/29 01:02:22;;;;;;;24.55;4.15;;;;;;;11.21;95.27;102475.00;5038608;28;20458;-73
2023/05/29 01:04:48;;;;;;;29.60;4.33;;;;;;;11.17;96.19;102479.13;5039452;28;20063;-72
2023/05/29 01:07:13;;;;;;;23.58;4.25;;;;;;;11.16;96.08;102493.00;5039189;28;20386;-71
2023/05/29 01:09:39;;;;;;;21.97;4.83;;;;;;;11.11;95.69;102496.19;5036727;28;20037;-71
2023/05/29 01:12:43;;;;;;;29.17;4.90;;;;;;;11.09;95.91;102492.75;5036239;28;20029;-72
2023/05/29 01:15:24;;;;;;;25.27;4.30;;;;;;;11.07;96.62;102488.47;5037199;28;20039;-71
2023/05/29 01:18:50;;;;;;;24.77;5.30;;;;;;;11.01;96.38;102491.84;5040801;28;20047;-71
2023/05/29 01:21:33;;;;;;;27.13;5.20;;;;;;;11.04;96.41;102491.53;5014155;28;20037;-71
2023/05/29 01:24:21;;;;;;;17.42;4.18;;;;;;;11.01;96.60;102489.09;5067422;28;20049;-71
2023/05/29 01:27:00;;;;;;;23.60;4.63;;;;;;;10.98;96.44;102489.41;5036552;28;20031;-72
2023/05/29 01:29:31;;;;;;;30.23;5.35;;;;;;;10.92;96.51;102485.44;5049046;28;20074;-71
2023/05/29 01:31:58;;;;;;;23.88;5.07;;;;;;;10.87;97.04;102492.41;5039344;28;20548;-71
2023/05/29 01:34:23;;;;;;;;;;;;;;;10.89;96.45;102491.22;5071656;28;20039;-72
2023/05/29 01:36:48;;;;;;;26.85;5.00;;;;;;;10.84;97.08;102488.09;5040280;28;19913;-72
2023/05/29 01:39:15;;;;;;;23.63;4.80;;;;;;;10.84;96.42;102490.00;5037500;28;20053;-72
2023/05/29 01:41:42;;;;;;;27.95;4.35;;;;;;;10.81;96.54;102490.31;5036332;28;20029;-72
2023/05/29 01:44:09;;;;;;;21.60;4.75;;;;;;;10.80;96.57;102499.56;5036824;28;20056;-72
2023/05/29 01:46:37;;;;;;;24.02;4.32;;;;;;;10.79;96.60;102506.06;5043306;28;20052;-72
2023/05/29 01:49:03;;;;;;;19.45;3.90;;;;;;;10.77;96.84;102508.97;5037556;28;20034;-71
2023/05/29 01:51:28;;;;;;;29.20;3.87;;;;;;;10.70;96.62;102509.75;5037976;28;20029;-72
2023/05/29 01:53:54;;;;;;;27.35;5.28;;;;;;;10.68;96.37;102503.56;5039419;28;20021;-72
2023/05/29 01:56:20;;;;;;;22.10;4.20;;;;;;;10.60;96.79;102509.84;5036345;28;20029;-71
2023/05/29 01:58:46;;;;;;;18.00;3.22;;;;;;;10.60;96.29;102517.19;5037208;28;20037;-71
2023/05/29 02:01:11;;;;;;;24.10;4.03;;;;;;;10.58;96.43;102508.25;5033704;28;20107;-72
2023/05/29 02:03:37;;;;;;;26.50;4.20;;;;;;;10.55;96.37;102508.56;5035502;28;20102;-71
2023/05/29 02:06:04;;;;;;;21.48;4.63;;;;;;;10.53;96.75;102511.50;5032500;28;20461;-72
2023/05/29 02:08:29;;;;;;;23.83;4.90;;;;;;;10.50;96.13;102517.25;5036686;28;20017;-71
2023/05/29 02:10:55;;;;;;;18.97;3.87;;;;;;;10.51;96.10;102515.41;5033381;28;20036;-72
2023/05/29 02:13:21;;;;;;;23.88;4.32;;;;;;;10.51;95.76;102510.75;5034920;28;20017;-71
2023/05/29 02:15:46;;;;;;;25.50;5.43;;;;;;;10.47;96.09;102514.81;5035694;28;20044;-71
2023/05/29 02:18:14;;;;;;;23.55;4.82;;;;;;;10.41;96.20;102515.44;5033814;28;20078;-71
2023/05/29 02:20:40;;;;;;;26.02;4.32;;;;;;;10.42;96.23;102510.84;5041491;28;20026;-72
2023/05/29 02:23:08;;;;;;;20.93;4.33;;;;;;;10.39;95.69;102512.00;5037247;28;20037;-71
2023/05/29 02:25:33;;;;;;;25.05;4.60;;;;;;;10.37;96.22;102514.06;5035880;28;20029;-71
2023/05/29 02:27:58;;;;;;;26.57;4.77;;;;;;;10.32;96.18;102515.53;5037272;28;20380;-71
2023/05/29 02:30:24;;;;;;;22.08;3.55;;;;;;;10.36;96.12;102514.22;5034939;28;20095;-71
2023/05/29 02:32:50;;;;;;;21.00;3.80;;;;;;;10.29;96.41;102513.09;5039598;28;20032;-72
2023/05/29 02:35:17;;;;;;;29.70;4.40;;;;;;;10.28;96.37;102519.59;5035068;28;20040;-71
2023/05/29 02:37:43;;;;;;;24.38;5.05;;;;;;;10.29;96.31;102519.44;5033083;28;20037;-72
2023/05/29 02:40:09;;;;;;;24.37;4.90;;;;;;;10.27;96.19;102507.78;5037396;28;20029;-72
2023/05/29 02:42:35;;;;;;;21.20;4.20;;;;;;;10.26;96.41;102514.25;5038659;28;20382;-72
2023/05/29 02:45:01;;;;;;;30.17;4.70;;;;;;;10.22;96.35;102507.38;5032998;28;20041;-72
2023/05/29 02:47:26;;;;;;;23.97;4.33;;;;;;;10.20;96.77;102509.41;5034038;28;20524;-71
2023/05/29 02:49:53;;;;;;;27.77;4.82;;;;;;;10.16;97.09;102508.00;5037558;28;20033;-71
2023/05/29 02:52:18;;;;;;;28.38;4.40;;;;;;;10.19;96.74;102518.63;5039804;28;20032;-71
2023/05/29 02:54:43;;;;;;;22.63;4.03;;;;;;;10.20;97.12;102516.78;5042042;28;20455;-73
2023/05/29 02:57:09;;;;;;;16.73;3.97;;;;;;;10.12;97.05;102511.19;5036323;28;20021;-73
2023/05/29 02:59:35;;;;;;;26.30;4.55;;;;;;;10.08;97.38;102507.91;5041559;28;20028;-73
2023/05/29 03:02:00;;;;;;;20.52;4.43;;;;;;;10.09;97.36;102512.34;5038006;28;20024;-71
2023/05/29 03:04:27;;;;;;;27.00;4.13;;;;;;;10.08;97.48;102513.38;5042371;28;20114;-72
2023/05/29 03:06:52;;;;;;;25.73;4.40;;;;;;;9.99;97.94;102527.09;5069026;28;20453;-71
2023/05/29 03:09:18;;;;;;;23.83;4.35;;;;;;;10.02;97.84;102522.16;5044180;28;20078;-71
2023/05/29 03:11:44;;;;;;;27.77;4.00;;;;;;;10.02;97.89;102522.16;5039843;28;20028;-73
2023/05/29 03:14:10;;;;;;;18.98;4.00;;;;;;;10.01;97.71;102534.16;5035456;28;20059;-71
2023/05/29 03:16:35;;;;;;;27.90;4.38;;;;;;;10.00;97.88;102523.34;5038138;28;20064;-72
2023/05/29 03:19:01;;;;;;;28.30;3.65;;;;;;;9.98;97.82;102531.69;5035675;28;20477;-72
2023/05/29 03:21:27;;;;;;;31.48;4.90;;;;;;;9.95;98.34;102525.66;5036773;28;20108;-71
2023/05/29 03:23:52;;;;;;;26.07;4.97;;;;;;;9.92;98.67;102528.72;5037418;28;20064;-72
2023/05/29 03:26:18;;;;;;;32.43;4.27;;;;;;;10.01;98.15;102530.53;5038292;28;20037;-72
2023/05/29 03:28:43;;;;;;;29.85;5.88;;;;;;;9.95;98.47;102526.53;5038599;28;20029;-72
2023/05/29 03:31:09;;;;;;;24.27;4.17;;;;;;;9.90;99.28;102525.25;5027769;28;20039;-71
2023/05/29 03:33:35;;;;;;;29.85;4.40;;;;;;;9.90;99.12;102528.00;5037594;28;20385;-71
2023/05/29 03:36:01;;;;;;;26.95;4.32;;;;;;;9.92;99.13;102528.72;5040416;28;20025;-72
2023/05/29 03:38:26;;;;;;;24.45;3.97;;;;;;;9.86;99.15;102526.56;5039022;28;20040;-72
2023/05/29 03:40:52;;;;;;;27.35;4.30;;;;;;;9.84;99.40;102525.88;5038112;28;20096;-72
2023/05/29 03:43:17;;;;;;;30.05;4.05;;;;;;;9.84;99.86;102532.22;5039526;28;20045;-72
2023/05/29 03:45:42;;;;;;;16.60;3.53;;;;;;;9.84;99.86;102528.59;5038111;28;20049;-72
2023/05/29 03:48:09;;;;;;;23.67;4.60;;;;;;;9.84;100.00;102524.00;5039605;28;20036;-72
2023/05/29 03:50:35;;;;;;;22.83;5.30;;;;;;;9.87;99.38;102525.59;5038427;28;20063;-72
2023/05/29 03:53:00;;;;;;;18.15;3.70;;;;;;;9.87;99.13;102542.00;5039960;28;20029;-72
2023/05/29 03:55:27;;;;;;;25.65;4.63;;;;;;;9.84;99.29;102542.28;5030513;28;20040;-72
2023/05/29 03:57:53;;;;;;;30.45;3.95;;;;;;;9.88;99.79;102544.56;5043021;28;20504;-72
2023/05/29 04:00:19;;;;;;;20.10;3.57;;;;;;;9.87;99.23;102529.16;5037644;28;20021;-73
2023/05/29 04:02:44;;;;;;;22.95;3.20;;;;;;;9.92;98.91;102545.16;5035766;28;20025;-72
2023/05/29 04:05:10;;;;;;;25.90;4.10;;;;;;;9.90;98.58;102541.69;5036583;28;20103;-72
2023/05/29 04:07:39;;;;;;;33.03;4.47;;;;;;;9.90;98.98;102537.09;5038129;28;20475;-72
2023/05/29 04:10:06;;;;;;;18.00;3.42;;;;;;;9.95;98.19;102539.34;5044027;28;20021;-72
2023/05/29 04:12:32;;;;;;;;;;;;;;;9.96;98.19;102543.81;5038994;28;20370;-72
2023/05/29 04:14:57;;;;;;;26.92;3.92;;;;;;;9.97;97.93;102537.31;5040309;28;20042;-72
2023/05/29 04:17:23;;;;;;;29.45;4.10;;;;;;;9.97;97.84;102545.53;5038449;28;20048;-73
2023/05/29 04:19:48;;;;;;;22.53;4.13;;;;;;;10.00;97.87;102548.84;5039545;28;20368;-72
2023/05/29 04:22:14;;;;;;;23.95;4.10;;;;;;;10.00;97.31;102542.50;5037520;28;20029;-73
2023/05/29 04:24:41;;;;;;;20.93;4.07;;;;;;;10.01;97.49;102536.88;5040542;28;20049;-72
2023/05/29 04:27:12;;;;;;;21.70;3.88;;;;;;;10.06;96.76;102550.13;5035239;28;20033;-74
2023/05/29 04:29:42;;;;;;;23.92;4.05;;;;;;;10.03;96.75;102553.16;5037724;28;20112;-74
2023/05/29 04:32:10;;;;;;;25.73;3.97;;;;;;;10.07;96.39;102552.72;5044401;28;20036;-74
2023/05/29 04:34:35;;;;;;;27.98;4.00;;;;;;;10.09;96.58;102549.84;5077702;28;20025;-75
2023/05/29 04:37:04;;;;;;;19.90;4.43;;;;;;;10.12;95.84;102550.41;5036738;28;20025;-74
2023/05/29 04:39:30;;;;;;;32.22;4.18;;;;;;;10.19;95.89;102550.66;5039565;28;20027;-75
2023/05/29 04:41:58;;;;;;;23.37;3.33;;;;;;;10.19;95.82;102547.91;5045416;28;20481;-74
2023/05/29 04:44:26;;;;;;;26.25;3.70;;;;;;;10.26;95.36;102546.28;5041977;28;20429;-75
2023/05/29 04:46:52;;;;;;;26.83;5.05;;;;;;;10.24;94.88;102556.53;5031586;28;20025;-74
2023/05/29 04:49:18;;;;;;;22.60;3.63;;;;;;;10.26;95.02;102566.28;5042468;28;20045;-74
2023/05/29 04:51:44;;;;;;;22.10;4.10;;;;;;;10.33;94.88;102564.69;5028713;28;20033;-75
2023/05/29 04:54:11;;;;;;;23.75;4.30;;;;;;;10.39;94.82;102558.59;5038395;28;20053;-75
2023/05/29 04:56:39;;;;;;;26.75;4.70;;;;;;;10.49;94.10;102567.59;5038456;28;20425;-75
2023/05/29 04:59:06;;;;;;;19.98;4.65;;;;;;;10.60;93.69;102569.25;5036171;28;20029;-74
2023/05/29 05:01:33;;;;;;;27.77;4.88;;;;;;;10.55;93.17;102574.31;5032311;28;20029;-74
2023/05/29 05:03:59;;;;;;;29.05;4.25;;;;;;;10.57;92.84;102577.78;5038432;28;20512;-73
2023/05/29 05:06:25;;;;;;;27.10;5.38;;;;;;;10.66;92.65;102585.94;5033611;28;20044;-74
2023/05/29 05:08:51;;;;;;;20.40;3.55;;;;;;;10.64;92.41;102581.63;5038720;28;20143;-74
2023/05/29 05:11:17;;;;;;;23.83;3.20;;;;;;;10.80;92.18;102584.53;5043015;28;20024;-73
2023/05/29 05:13:43;;;;;;;27.05;3.95;;;;;;;10.84;91.68;102583.22;5038545;28;20033;-74
2023/05/29 05:16:08;;;;;;;18.43;3.33;;;;;;;11.35;89.27;102589.66;5038674;28;20033;-73
2023/05/29 05:18:34;;;;;;;20.97;4.27;;;;;;;11.97;85.35;102594.03;5039491;28;20543;-74
2023/05/29 05:20:59;;;;;;;25.03;4.07;;;;;;;12.75;82.99;102588.16;5039493;28;20050;-74
2023/05/29 05:23:25;;;;;;;25.20;3.70;;;;;;;12.95;80.80;102586.78;5034136;28;20040;-74
2023/05/29 05:25:50;;;;;;;19.30;3.13;;;;;;;13.30;78.99;102589.25;5033158;28;20116;-74
2023/05/29 05:28:16;;;;;;;17.60;3.50;;;;;;;13.41;77.28;102586.16;5036284;28;20028;-74
2023/05/29 05:30:41;;;;;;;24.07;4.17;;;;;;;13.61;75.88;102598.53;5034254;28;20025;-75
2023/05/29 05:33:07;;;;;;;23.27;3.37;;;;;;;14.00;73.58;102585.69;5029043;28;20065;-74
2023/05/29 05:35:33;;;;;;;17.00;3.63;;;;;;;14.50;73.45;102587.06;5040721;28;20021;-74
2023/05/29 05:37:58;;;;;;;18.92;3.65;;;;;;;14.70;70.92;102585.56;5039016;28;20404;-74
2023/05/29 05:40:25;;;;;;;23.53;4.23;;;;;;;15.12;69.89;102585.97;5033993;28;20029;-74
2023/05/29 05:42:51;;;;;;;15.68;3.65;;;;;;;15.02;69.90;102590.00;5028594;28;20112;-74
2023/05/29 05:45:16;;;;;;;17.33;3.67;;;;;;;15.17;67.12;102589.03;5040668;28;20509;-75
2023/05/29 05:47:42;;;;;;;21.53;3.70;;;;;;;15.73;66.91;102577.47;5033340;28;20030;-74
2023/05/29 05:50:08;;;;;;;24.63;4.03;;;;;;;16.05;65.44;102584.53;5032328;28;20164;-74
2023/05/29 05:52:33;;;;;;;18.40;3.50;;;;;;;16.10;64.54;102591.22;5029683;28;20021;-74
2023/05/29 05:54:59;;;;;;;19.10;3.97;;;;;;;16.50;62.16;102587.13;5037123;28;20151;-74
2023/05/29 05:57:25;;;;;;;21.07;3.53;;;;;;;15.99;64.48;102600.00;5028990;28;20017;-74
2023/05/29 05:59:50;;;;;;;15.50;3.70;;;;;;;16.27;63.27;102601.03;5034431;28;20687;-73
2023/05/29 06:02:16;;;;;;;20.30;4.17;;;;;;;15.44;65.90;102609.72;5032944;28;20060;-73
2023/05/29 06:04:41;;;;;;;18.47;3.90;;;;;;;15.63;65.00;102600.91;5038825;28;20400;-73
2023/05/29 06:07:07;;;;;;;24.17;4.03;;;;;;;15.72;64.16;102600.66;5033617;28;20045;-73
2023/05/29 06:09:32;;;;;;;17.90;3.80;;;;;;;16.31;62.41;102612.56;5033077;28;20033;-74
2023/05/29 06:11:58;;;;;;;16.13;3.60;;;;;;;16.46;62.19;102605.16;5040019;28;20029;-73
2023/05/29 06:14:24;;;;;;;27.33;3.92;;;;;;;16.10;62.84;102599.53;5033604;28;20397;-73
2023/05/29 06:16:50;;;;;;;21.03;4.23;;;;;;;16.87;59.95;102615.47;5046533;28;20029;-73
2023/05/29 06:19:16;;;;;;;18.05;3.38;;;;;;;16.87;60.07;102620.16;5038285;28;20281;-73
2023/05/29 06:21:41;;;;;;;21.57;3.63;;;;;;;17.08;59.59;102617.44;5035412;28;20410;-73
2023/05/29 06:24:07;;;;;;;22.63;4.13;;;;;;;16.66;59.41;102620.13;5038014;28;20029;-73
2023/05/29 06:26:32;;;;;;;22.57;3.83;;;;;;;16.53;60.29;102620.81;5039985;28;20460;-73
2023/05/29 06:28:57;;;;;;;26.63;6.17;;;;;;;17.08;59.51;102628.50;5040312;28;20029;-73
2023/05/29 06:31:23;;;;;;;23.13;4.10;;;;;;;17.07;59.02;102630.41;5038069;28;20030;-74
2023/05/29 06:33:48;;;;;;;19.57;4.07;;;;;;;16.82;59.41;102631.81;5041237;28;20028;-73
2023/05/29 06:36:14;;;;;;;20.90;4.13;;;;;;;17.07;59.71;102621.25;5040877;28;20029;-72
2023/05/29 06:38:39;;;;;;;18.87;3.70;;;;;;;16.85;58.42;102616.72;5041194;28;20029;-73
2023/05/29 06:41:06;;;;;;;20.00;3.75;;;;;;;17.15;58.16;102613.69;5038404;28;20021;-74
2023/05/29 06:43:32;;;;;;;;;;;;;;;17.04;60.99;102624.41;5043426;28;20033;-73
2023/05/29 06:45:57;;;;;;;17.15;3.83;;;;;;;17.02;59.43;102623.75;5035252;28;19928;-73
2023/05/29 06:48:23;;;;;;;18.53;3.57;;;;;;;17.54;59.26;102624.28;5041191;28;20116;-73
2023/05/29 06:50:48;;;;;;;16.27;3.50;;;;;;;17.66;57.61;102628.25;5041426;28;20069;-73
2023/05/29 06:53:14;;;;;;;24.73;4.00;;;;;;;17.58;55.42;102632.03;5039908;28;22349;-73
2023/05/29 06:55:42;;;;;;;17.30;3.80;;;;;;;18.06;55.12;102625.59;5038783;28;20036;-74
2023/05/29 06:58:08;;;;;;;22.27;3.88;;;;;;;17.34;56.49;102642.63;5041864;28;20138;-74
2023/05/29 07:00:33;;;;;;;19.57;3.37;;;;;;;16.69;58.35;102639.97;5042899;28;20100;-74
2023/05/29 07:02:58;;;;;;;14.50;3.23;;;;;;;16.88;57.45;102630.19;5043227;28;20104;-75
2023/05/29 07:05:26;;;;;;;21.83;3.57;;;;;;;17.05;57.47;102634.41;5040961;28;20029;-74
2023/05/29 07:07:51;;;;;;;22.95;3.83;;;;;;;17.00;57.97;102625.84;5042429;28;20033;-75
2023/05/29 07:10:17;;;;;;;25.43;4.10;;;;;;;17.41;55.91;102640.81;5038700;28;20091;-74
2023/05/29 07:12:43;;;;;;;14.67;3.73;;;;;;;18.21;54.68;102628.25;5037704;28;20037;-74
2023/05/29 07:15:09;;;;;;;14.40;3.33;;;;;;;17.61;55.23;102630.78;5040934;28;20036;-74
2023/05/29 07:17:35;;;;;;;23.50;3.33;;;;;;;17.86;54.13;102635.69;5037307;28;20481;-74
2023/05/29 07:20:00;;;;;;;17.63;3.40;;;;;;;17.60;54.28;102649.31;5040335;28;20018;-74
2023/05/29 07:22:25;;;;;;;22.00;3.80;;;;;;;17.48;53.62;102634.28;5036227;28;20091;-74
2023/05/29 07:24:51;;;;;;;18.73;3.20;;;;;;;17.70;53.81;102635.09;5031855;28;20035;-74
2023/05/29 07:27:16;;;;;;;15.20;3.30;;;;;;;17.58;52.88;102633.94;5038265;28;20304;-73
2023/05/29 07:29:42;;;;;;;15.73;3.10;;;;;;;17.53;53.46;102628.13;5040669;28;20023;-72
2023/05/29 07:32:09;;;;;;;13.50;3.53;;;;;;;17.54;52.71;102639.03;5039770;28;20381;-73
2023/05/29 07:34:34;;;;;;;20.65;4.70;;;;;;;17.03;55.00;102642.06;5043875;28;20028;-72
2023/05/29 07:37:04;;;;;;;22.00;4.23;;;;;;;17.86;54.43;102640.34;5037950;28;20468;-72
2023/05/29 07:39:31;;;;;;;21.58;4.22;;;;;;;17.83;53.88;102635.22;5043407;28;20049;-75
2023/05/29 07:41:56;;;;;;;;;;;;;;;17.55;53.61;102648.22;5038098;28;20110;-74
2023/05/29 07:44:22;;;;;;;16.13;3.47;;;;;;;17.42;53.88;102642.53;5036390;28;19917;-75
2023/05/29 07:46:48;;;;;;;14.80;3.57;;;;;;;16.77;55.91;102642.63;5041288;28;20392;-72
2023/05/29 07:49:13;;;;;;;25.97;3.93;;;;;;;17.24;56.84;102644.88;5040163;28;20041;-72
2023/05/29 07:51:39;;;;;;;20.23;4.20;;;;;;;17.08;56.00;102639.59;5041591;28;20025;-72
2023/05/29 07:54:05;;;;;;;16.43;3.03;;;;;;;16.88;55.59;102644.91;5039700;28;20052;-73
2023/05/29 07:56:30;;;;;;;15.48;3.00;;;;;;;16.92;55.23;102639.81;5041929;28;20025;-72
2023/05/29 07:58:56;;;;;;;16.27;3.40;;;;;;;17.26;55.04;102656.59;5042961;28;20029;-72
2023/05/29 08:01:22;;;;;;;19.97;3.67;;;;;;;16.70;56.05;102657.44;5037326;28;20021;-72
2023/05/29 08:03:47;;;;;;;13.70;2.83;;;;;;;17.22;56.44;102644.19;5040311;28;20025;-72
2023/05/29 08:06:13;;;;;;;14.77;3.00;;;;;;;17.09;56.54;102638.53;5042023;28;20029;-72
2023/05/29 08:08:39;;;;;;;20.38;3.63;;;;;;;18.06;54.00;102646.91;5042217;28;20029;-72
2023/05/29 08:11:05;;;;;;;23.13;3.93;;;;;;;17.74;53.20;102647.50;5037015;28;20082;-73
2023/05/29 08:13:31;;;;;;;19.13;4.22;;;;;;;17.02;53.74;102651.44;5040437;28;20048;-72
2023/05/29 08:15:56;;;;;;;16.77;3.17;;;;;;;16.77;54.17;102647.28;5037452;28;20095;-72
2023/05/29 08:18:25;;;;;;;17.70;3.40;;;;;;;16.58;55.63;102659.81;5039383;28;20025;-73
2023/05/29 08:20:51;;;;;;;17.02;2.75;;;;;;;17.04;55.86;102655.75;5038343;28;20024;-72
2023/05/29 08:23:16;;;;;;;14.77;3.37;;;;;;;17.15;53.71;102652.44;5038822;28;20409;-73
2023/05/29 08:25:42;;;;;;;18.47;3.30;;;;;;;17.02;54.05;102652.28;5048751;28;20036;-72
2023/05/29 08:28:07;;;;;;;20.20;3.40;;;;;;;17.09;55.07;102653.25;5043322;28;20033;-72
2023/05/29 08:30:33;;;;;;;22.93;3.63;;;;;;;17.31;55.23;102652.19;5045743;28;20500;-73
2023/05/29 08:32:58;;;;;;;23.00;3.60;;;;;;;17.47;55.03;102660.28;5046469;28;20389;-72
2023/05/29 08:35:24;;;;;;;14.27;3.30;;;;;;;17.67;53.98;102663.25;5046970;28;20033;-72
2023/05/29 08:37:49;;;;;;;23.80;3.70;;;;;;;17.27;54.86;102663.84;5048525;28;20094;-73
2023/05/29 08:40:17;;;;;;;11.73;3.30;;;;;;;17.30;55.06;102666.25;5055897;28;20424;-72
2023/05/29 08:43:25;;;;;;;18.48;4.20;;;;;;;17.09;54.54;102669.84;5046870;28;20141;-72
2023/05/29 08:45:54;;;;;;;16.20;3.83;;;;;;;17.12;55.00;102669.44;5049385;28;20538;-72
2023/05/29 08:48:25;;;;;;;19.52;3.55;;;;;;;17.75;53.70;102674.16;5044023;28;20048;-73
2023/05/29 08:50:53;;;;;;;11.70;3.28;;;;;;;17.31;54.38;102668.81;5043350;28;20025;-73
2023/05/29 08:53:21;;;;;;;18.65;3.13;;;;;;;17.17;54.76;102668.84;5040123;28;20021;-73
2023/05/29 08:55:52;;;;;;;20.27;4.32;;;;;;;17.20;54.43;102682.31;5050559;28;20044;-74
2023/05/29 08:58:18;;;;;;;20.15;3.15;;;;;;;17.15;53.42;102676.50;5044561;28;20028;-75
2023/05/29 09:00:48;;;;;;;13.43;3.13;;;;;;;17.12;54.81;102674.97;5045491;28;20028;-74
2023/05/29 09:03:13;;;;;;;14.30;2.63;;;;;;;17.37;53.87;102673.56;5034848;28;20485;-75
2023/05/29 09:05:40;;;;;;;18.00;3.50;;;;;;;17.38;54.43;102674.41;5034731;28;20018;-72
2023/05/29 09:08:07;;;;;;;12.23;3.05;;;;;;;17.71;54.73;102681.19;5033974;28;20120;-73
2023/05/29 09:10:33;;;;;;;14.77;3.28;;;;;;;18.02;52.49;102687.19;5031469;28;20430;-73
2023/05/29 09:12:59;;;;;;;11.70;2.80;;;;;;;18.00;52.51;102675.47;5035207;28;20143;-72
2023/05/29 09:15:24;;;;;;;14.90;3.17;;;;;;;17.47;53.40;102674.13;5040219;28;20356;-72
2023/05/29 09:17:57;;;;;;;12.70;2.83;;;;;;;17.47;53.63;102674.13;5037732;28;20456;-73
2023/05/29 09:20:24;;;;;;;15.80;2.65;;;;;;;17.30;53.92;102680.94;5036823;28;20021;-73
2023/05/29 09:22:53;;;;;;;18.73;4.00;;;;;;;17.77;53.55;102672.06;5033632;28;20017;-73
2023/05/29 09:25:22;;;;;;;12.05;2.55;;;;;;;18.22;52.43;102677.13;5042271;28;20033;-74
2023/05/29 09:27:50;;;;;;;17.60;3.25;;;;;;;18.36;51.73;102676.19;5070848;28;20560;-74
2023/05/29 09:30:39;;;;;;;11.80;3.35;;;;;;;18.61;51.50;102667.16;5038067;28;20175;-73
2023/05/29 09:33:10;;;;;;;13.43;3.40;;;;;;;18.50;51.36;102672.41;5036587;28;20029;-74
2023/05/29 09:35:36;;;;;;;10.85;2.83;;;;;;;18.11;52.42;102678.56;5036181;28;20021;-72
2023/05/29 09:38:02;;;;;;;14.40;2.95;;;;;;;18.15;51.88;102663.19;5069101;28;20551;-73
2023/05/29 09:40:32;;;;;;;13.20;3.77;;;;;;;18.63;51.30;102656.69;5031711;28;20484;-73
2023/05/29 09:43:24;;;;;;;11.88;2.83;;;;;;;18.70;51.49;102657.59;5037769;28;20029;-73
2023/05/29 09:45:50;;;;;;;11.85;2.90;;;;;;;18.55;50.37;102658.78;5039388;28;20378;-73
2023/05/29 09:48:22;;;;;;;17.60;2.95;;;;;;;18.23;51.06;102659.41;5037636;28;20099;-73
2023/05/29 09:50:48;;;;;;;18.95;3.53;;;;;;;18.38;51.01;102651.84;5037243;28;20043;-73
2023/05/29 09:53:19;;;;;;;10.52;2.90;;;;;;;19.17;50.18;102662.25;5041162;28;20025;-73
2023/05/29 09:55:47;;;;;;;15.00;2.75;;;;;;;19.27;48.38;102671.94;5033403;28;20025;-74
2023/05/29 09:58:14;;;;;;;14.75;3.15;;;;;;;19.16;47.41;102685.56;5037805;28;20021;-73
2023/05/29 10:00:40;;;;;;;;;;;;;;;19.24;48.00;102666.81;5042056;28;20020;-72
2023/05/29 10:03:05;;;;;;;16.83;3.15;;;;;;;19.45;47.46;102658.31;5038620;28;19985;-72
2023/05/29 10:05:31;;;;;;;14.37;3.30;;;;;;;19.54;47.67;102661.72;5038018;28;20033;-73
2023/05/29 10:07:59;;;;;;;19.92;3.00;;;;;;;19.16;47.26;102666.13;5035192;28;20037;-74
2023/05/29 10:10:26;;;;;;;11.23;3.03;;;;;;;19.21;47.92;102667.22;5035371;28;20029;-73
2023/05/29 10:12:56;;;;;;;13.68;3.38;;;;;;;19.05;47.76;102659.22;5036176;28;20551;-73
2023/05/29 10:15:23;;;;;;;14.48;3.05;;;;;;;18.64;49.06;102660.34;5035098;28;20365;-74
2023/05/29 10:18:12;;;;;;;15.13;3.63;;;;;;;18.97;48.54;102664.09;5046374;28;20116;-73
2023/05/29 10:20:38;;;;;;;9.63;2.95;;;;;;;18.62;48.61;102659.69;5041262;28;20021;-72
2023/05/29 10:23:04;;;;;;;13.63;3.53;;;;;;;18.75;48.69;102660.63;5039738;28;20508;-72
2023/05/29 10:25:32;;;;;;;17.93;3.87;;;;;;;18.70;48.25;102657.59;5040955;28;20033;-72
2023/05/29 10:27:58;;;;;;;17.13;3.33;;;;;;;19.20;47.78;102664.63;5040156;28;20400;-73
2023/05/29 10:30:45;;;;;;;14.63;3.22;;;;;;;19.16;47.38;102643.88;5044727;28;20036;-72
2023/05/29 10:33:26;;;;;;;13.80;2.70;;;;;;;19.05;47.88;102661.16;5041382;28;20033;-73
2023/05/29 10:36:14;;;;;;;16.67;2.83;;;;;;;19.26;47.60;102653.53;5040261;28;20460;-72
2023/05/29 10:38:43;;;;;;;12.75;3.10;;;;;;;19.68;46.63;102658.75;5043661;28;20389;-72
2023/05/29 10:41:27;;;;;;;10.70;2.63;;;;;;;19.59;46.03;102650.84;5041753;28;20021;-73
2023/05/29 10:44:01;;;;;;;11.60;3.00;;;;;;;19.85;45.62;102648.06;5039784;28;20485;-72
2023/05/29 10:46:44;;;;;;;13.27;3.28;;;;;;;19.84;45.34;102646.38;5072147;28;20132;-73
2023/05/29 10:49:20;;;;;;;11.38;2.83;;;;;;;20.01;45.46;102648.47;5041264;28;20028;-72
2023/05/29 10:51:46;;;;;;;14.38;2.95;;;;;;;19.41;46.34;102645.00;5042371;28;20032;-73
2023/05/29 10:54:13;;;;;;;14.90;2.93;;;;;;;19.08;46.24;102639.38;5042089;28;20433;-73
2023/05/29 10:56:39;;;;;;;12.88;3.20;;;;;;;19.29;46.66;102641.16;5036889;28;20029;-73
2023/05/29 10:59:07;;;;;;;15.05;3.22;;;;;;;19.37;46.96;102638.19;5039324;28;20397;-72
2023/05/29 11:01:33;;;;;;;10.98;2.85;;;;;;;19.87;47.14;102635.66;5037431;28;21428;-73
2023/05/29 11:04:17;;;;;;;16.77;3.05;;;;;;;19.65;47.72;102634.16;5034756;28;20040;-73
2023/05/29 11:06:43;;;;;;;13.85;3.28;;;;;;;19.83;48.12;102622.38;5041354;28;20040;-73
2023/05/29 11:09:29;;;;;;;;;;;;;;;19.89;47.14;102635.41;5036960;28;20061;-73
2023/05/29 11:12:23;;;;;;;12.45;3.03;;;;;;;19.89;47.12;102633.50;5046425;28;19921;-72
2023/05/29 11:15:02;;;;;;;12.77;3.50;;;;;;;19.84;46.63;102629.69;5047455;28;20518;-71
2023/05/29 11:17:39;;;;;;;12.68;3.55;;;;;;;19.69;46.45;102637.38;5037872;28;20052;-72
2023/05/29 11:20:08;;;;;;;20.20;3.30;;;;;;;19.37;46.39;102625.13;5039722;28;20450;-72
2023/05/29 11:22:53;;;;;;;10.50;3.33;;;;;;;19.61;45.88;102632.00;5043227;28;20566;-72